sensor_id;sensor_type;location;lat;lon;timestamp;P1;durP1;ratioP1;P2;durP2;ratioP2
51475;SDS011;37554;50.362;7.568;2023-03-03T00:01:15;5.18;;;4.53;;
51475;SDS011;37554;50.362;7.568;2023-03-03T00:03:41;6.22;;;4.72;;
51475;SDS011;37554;50.362;7.568;2023-03-03T00:06:08;5.30;;;4.80;;
51475;SDS011;37554;50.362;7.568;2023-03-03T00:08:35;5.10;;;4.40;;
51475;SDS011;37554;50.362;7.568;2023-03-03T00:11:01;5.53;;;4.68;;
51475;SDS011;37554;50.362;7.568;2023-03-03T00:13:30;5.75;;;4.60;;
51475;SDS011;37554;50.362;7.568;2023-03-03T00:16:13;6.35;;;4.82;;
51475;SDS011;37554;50.362;7.568;2023-03-03T00:18:42;5.40;;;4.45;;
51475;SDS011;37554;50.362;7.568;2023-03-03T00:21:32;5.25;;;4.75;;
51475;SDS011;37554;50.362;7.568;2023-03-03T00:26:38;5.85;;;4.25;;
51475;SDS011;37554;50.362;7.568;2023-03-03T00:31:57;4.72;;;4.32;;
51475;SDS011;37554;50.362;7.568;2023-03-03T00:34:45;5.35;;;4.82;;
51475;SDS011;37554;50.362;7.568;2023-03-03T00:39:57;5.45;;;4.95;;
51475;SDS011;37554;50.362;7.568;2023-03-03T00:42:37;5.35;;;4.75;;
51475;SDS011;37554;50.362;7.568;2023-03-03T00:45:04;5.13;;;4.60;;
51475;SDS011;37554;50.362;7.568;2023-03-03T00:48:06;6.43;;;4.97;;
51475;SDS011;37554;50.362;7.568;2023-03-03T00:50:54;5.10;;;4.50;;
51475;SDS011;37554;50.362;7.568;2023-03-03T00:53:21;6.72;;;4.57;;
51475;SDS011;37554;50.362;7.568;2023-03-03T00:55:48;5.25;;;4.68;;
51475;SDS011;37554;50.362;7.568;2023-03-03T00:58:15;5.13;;;4.63;;
51475;SDS011;37554;50.362;7.568;2023-03-03T01:00:42;5.95;;;5.05;;
51475;SDS011;37554;50.362;7.568;2023-03-03T01:03:11;5.47;;;4.90;;
51475;SDS011;37554;50.362;7.568;2023-03-03T01:05:46;5.32;;;4.38;;
51475;SDS011;37554;50.362;7.568;2023-03-03T01:08:13;6.13;;;4.75;;
51475;SDS011;37554;50.362;7.568;2023-03-03T01:10:43;4.93;;;4.43;;
51475;SDS011;37554;50.362;7.568;2023-03-03T01:13:16;6.30;;;4.68;;
51475;SDS011;37554;50.362;7.568;2023-03-03T01:15:44;5.22;;;4.55;;
51475;SDS011;37554;50.362;7.568;2023-03-03T01:18:10;4.70;;;4.28;;
51475;SDS011;37554;50.362;7.568;2023-03-03T01:20:36;5.53;;;4.30;;
51475;SDS011;37554;50.362;7.568;2023-03-03T01:23:02;5.75;;;4.88;;
51475;SDS011;37554;50.362;7.568;2023-03-03T01:25:28;4.78;;;4.28;;
51475;SDS011;37554;50.362;7.568;2023-03-03T01:27:54;5.38;;;4.45;;
51475;SDS011;37554;50.362;7.568;2023-03-03T01:30:21;6.75;;;4.53;;
51475;SDS011;37554;50.362;7.568;2023-03-03T01:32:46;6.80;;;5.03;;
51475;SDS011;37554;50.362;7.568;2023-03-03T01:35:12;5.30;;;4.63;;
51475;SDS011;37554;50.362;7.568;2023-03-03T01:37:38;5.97;;;4.90;;
51475;SDS011;37554;50.362;7.568;2023-03-03T01:40:04;5.72;;;5.10;;
51475;SDS011;37554;50.362;7.568;2023-03-03T01:42:36;5.30;;;4.50;;
51475;SDS011;37554;50.362;7.568;2023-03-03T01:53:06;4.82;;;4.30;;
51475;SDS011;37554;50.362;7.568;2023-03-03T01:55:39;4.68;;;3.95;;
51475;SDS011;37554;50.362;7.568;2023-03-03T01:58:10;5.55;;;4.18;;
51475;SDS011;37554;50.362;7.568;2023-03-03T02:00:40;5.45;;;4.68;;
51475;SDS011;37554;50.362;7.568;2023-03-03T02:03:09;4.93;;;4.43;;
51475;SDS011;37554;50.362;7.568;2023-03-03T02:05:35;5.57;;;4.05;;
51475;SDS011;37554;50.362;7.568;2023-03-03T02:08:02;5.25;;;4.40;;
51475;SDS011;37554;50.362;7.568;2023-03-03T02:10:28;4.80;;;4.13;;
51475;SDS011;37554;50.362;7.568;2023-03-03T02:12:55;5.95;;;4.40;;
51475;SDS011;37554;50.362;7.568;2023-03-03T02:18:11;4.88;;;3.97;;
51475;SDS011;37554;50.362;7.568;2023-03-03T02:28:18;4.38;;;3.97;;
51475;SDS011;37554;50.362;7.568;2023-03-03T02:30:44;4.75;;;4.07;;
51475;SDS011;37554;50.362;7.568;2023-03-03T02:33:11;5.03;;;3.95;;
51475;SDS011;37554;50.362;7.568;2023-03-03T02:35:38;4.25;;;3.85;;
51475;SDS011;37554;50.362;7.568;2023-03-03T02:40:39;4.47;;;4.03;;
51475;SDS011;37554;50.362;7.568;2023-03-03T02:43:09;5.18;;;4.25;;
51475;SDS011;37554;50.362;7.568;2023-03-03T02:45:45;5.53;;;4.00;;
51475;SDS011;37554;50.362;7.568;2023-03-03T02:48:10;4.15;;;3.75;;
51475;SDS011;37554;50.362;7.568;2023-03-03T02:50:36;4.80;;;3.88;;
51475;SDS011;37554;50.362;7.568;2023-03-03T02:53:02;4.43;;;3.83;;
51475;SDS011;37554;50.362;7.568;2023-03-03T02:55:27;5.53;;;4.07;;
51475;SDS011;37554;50.362;7.568;2023-03-03T02:57:53;4.40;;;4.00;;
51475;SDS011;37554;50.362;7.568;2023-03-03T03:00:19;5.57;;;4.18;;
51475;SDS011;37554;50.362;7.568;2023-03-03T03:02:45;4.93;;;3.92;;
51475;SDS011;37554;50.362;7.568;2023-03-03T03:05:11;4.22;;;3.83;;
51475;SDS011;37554;50.362;7.568;2023-03-03T03:07:36;5.43;;;3.85;;
51475;SDS011;37554;50.362;7.568;2023-03-03T03:10:02;5.38;;;4.45;;
51475;SDS011;37554;50.362;7.568;2023-03-03T03:12:28;4.18;;;3.78;;
51475;SDS011;37554;50.362;7.568;2023-03-03T03:14:54;4.20;;;3.80;;
51475;SDS011;37554;50.362;7.568;2023-03-03T03:17:19;4.25;;;3.80;;
51475;SDS011;37554;50.362;7.568;2023-03-03T03:19:45;4.07;;;3.67;;
51475;SDS011;37554;50.362;7.568;2023-03-03T03:22:11;5.00;;;4.10;;
51475;SDS011;37554;50.362;7.568;2023-03-03T03:24:36;4.00;;;3.60;;
51475;SDS011;37554;50.362;7.568;2023-03-03T03:27:02;4.82;;;4.05;;
51475;SDS011;37554;50.362;7.568;2023-03-03T03:29:27;4.75;;;3.90;;
51475;SDS011;37554;50.362;7.568;2023-03-03T03:31:53;5.03;;;3.88;;
51475;SDS011;37554;50.362;7.568;2023-03-03T03:34:19;4.65;;;3.75;;
51475;SDS011;37554;50.362;7.568;2023-03-03T03:36:44;4.70;;;4.15;;
51475;SDS011;37554;50.362;7.568;2023-03-03T03:39:10;4.75;;;3.88;;
51475;SDS011;37554;50.362;7.568;2023-03-03T03:41:37;4.85;;;4.10;;
51475;SDS011;37554;50.362;7.568;2023-03-03T03:44:02;5.55;;;4.20;;
51475;SDS011;37554;50.362;7.568;2023-03-03T03:46:28;5.32;;;4.18;;
51475;SDS011;37554;50.362;7.568;2023-03-03T03:48:54;5.22;;;4.25;;
51475;SDS011;37554;50.362;7.568;2023-03-03T03:51:19;4.43;;;3.97;;
51475;SDS011;37554;50.362;7.568;2023-03-03T03:53:45;4.22;;;3.53;;
51475;SDS011;37554;50.362;7.568;2023-03-03T03:56:10;4.80;;;4.32;;
51475;SDS011;37554;50.362;7.568;2023-03-03T03:58:36;4.05;;;3.63;;
51475;SDS011;37554;50.362;7.568;2023-03-03T04:01:03;5.45;;;4.50;;
51475;SDS011;37554;50.362;7.568;2023-03-03T04:03:30;5.25;;;4.20;;
51475;SDS011;37554;50.362;7.568;2023-03-03T04:05:56;4.15;;;3.75;;
51475;SDS011;37554;50.362;7.568;2023-03-03T04:08:22;4.13;;;3.80;;
51475;SDS011;37554;50.362;7.568;2023-03-03T04:10:47;4.75;;;4.10;;
51475;SDS011;37554;50.362;7.568;2023-03-03T04:13:13;5.03;;;4.20;;
51475;SDS011;37554;50.362;7.568;2023-03-03T04:15:38;4.88;;;4.40;;
51475;SDS011;37554;50.362;7.568;2023-03-03T04:18:05;4.43;;;4.03;;
51475;SDS011;37554;50.362;7.568;2023-03-03T04:20:31;5.05;;;4.15;;
51475;SDS011;37554;50.362;7.568;2023-03-03T04:22:56;5.13;;;4.63;;
51475;SDS011;37554;50.362;7.568;2023-03-03T04:25:22;5.18;;;4.68;;
51475;SDS011;37554;50.362;7.568;2023-03-03T04:27:48;5.35;;;4.45;;
51475;SDS011;37554;50.362;7.568;2023-03-03T04:30:15;5.07;;;4.35;;
51475;SDS011;37554;50.362;7.568;2023-03-03T04:32:41;5.88;;;4.72;;
51475;SDS011;37554;50.362;7.568;2023-03-03T04:35:06;5.40;;;4.55;;
51475;SDS011;37554;50.362;7.568;2023-03-03T04:37:33;4.75;;;4.35;;
51475;SDS011;37554;50.362;7.568;2023-03-03T04:39:58;4.57;;;4.13;;
51475;SDS011;37554;50.362;7.568;2023-03-03T04:42:24;5.22;;;4.72;;
51475;SDS011;37554;50.362;7.568;2023-03-03T04:44:52;5.20;;;4.70;;
51475;SDS011;37554;50.362;7.568;2023-03-03T04:47:17;6.38;;;5.40;;
51475;SDS011;37554;50.362;7.568;2023-03-03T04:49:43;5.07;;;4.57;;
51475;SDS011;37554;50.362;7.568;2023-03-03T04:52:08;5.07;;;4.57;;
51475;SDS011;37554;50.362;7.568;2023-03-03T04:54:34;5.57;;;5.07;;
51475;SDS011;37554;50.362;7.568;2023-03-03T04:57:00;6.00;;;5.40;;
51475;SDS011;37554;50.362;7.568;2023-03-03T04:59:25;6.78;;;5.90;;
51475;SDS011;37554;50.362;7.568;2023-03-03T05:01:51;6.78;;;5.68;;
51475;SDS011;37554;50.362;7.568;2023-03-03T05:04:17;8.30;;;6.38;;
51475;SDS011;37554;50.362;7.568;2023-03-03T05:06:42;7.10;;;6.38;;
51475;SDS011;37554;50.362;7.568;2023-03-03T05:09:08;10.63;;;7.18;;
51475;SDS011;37554;50.362;7.568;2023-03-03T05:11:34;7.53;;;6.70;;
51475;SDS011;37554;50.362;7.568;2023-03-03T05:14:00;8.15;;;7.20;;
51475;SDS011;37554;50.362;7.568;2023-03-03T05:16:27;9.82;;;8.18;;
51475;SDS011;37554;50.362;7.568;2023-03-03T05:18:52;8.60;;;7.80;;
51475;SDS011;37554;50.362;7.568;2023-03-03T05:21:18;10.82;;;8.93;;
51475;SDS011;37554;50.362;7.568;2023-03-03T05:23:44;10.55;;;8.57;;
51475;SDS011;37554;50.362;7.568;2023-03-03T05:26:09;11.68;;;9.70;;
51475;SDS011;37554;50.362;7.568;2023-03-03T05:28:35;14.07;;;11.32;;
51475;SDS011;37554;50.362;7.568;2023-03-03T05:31:01;15.20;;;10.43;;
51475;SDS011;37554;50.362;7.568;2023-03-03T05:33:26;12.68;;;10.35;;
51475;SDS011;37554;50.362;7.568;2023-03-03T05:35:53;13.88;;;10.82;;
51475;SDS011;37554;50.362;7.568;2023-03-03T05:38:19;13.85;;;11.30;;
51475;SDS011;37554;50.362;7.568;2023-03-03T05:40:45;14.15;;;11.02;;
51475;SDS011;37554;50.362;7.568;2023-03-03T05:43:11;13.73;;;11.18;;
51475;SDS011;37554;50.362;7.568;2023-03-03T05:45:37;13.40;;;11.50;;
51475;SDS011;37554;50.362;7.568;2023-03-03T05:48:03;11.68;;;9.68;;
51475;SDS011;37554;50.362;7.568;2023-03-03T05:50:29;13.52;;;10.60;;
51475;SDS011;37554;50.362;7.568;2023-03-03T05:52:55;14.13;;;10.82;;
51475;SDS011;37554;50.362;7.568;2023-03-03T05:55:20;13.45;;;11.13;;
51475;SDS011;37554;50.362;7.568;2023-03-03T05:57:46;13.30;;;10.82;;
51475;SDS011;37554;50.362;7.568;2023-03-03T06:00:12;13.95;;;11.23;;
51475;SDS011;37554;50.362;7.568;2023-03-03T06:02:39;13.88;;;11.73;;
51475;SDS011;37554;50.362;7.568;2023-03-03T06:05:05;14.73;;;12.02;;
51475;SDS011;37554;50.362;7.568;2023-03-03T06:07:32;17.88;;;13.65;;
51475;SDS011;37554;50.362;7.568;2023-03-03T06:09:58;20.23;;;14.35;;
51475;SDS011;37554;50.362;7.568;2023-03-03T06:12:24;20.23;;;14.75;;
51475;SDS011;37554;50.362;7.568;2023-03-03T06:14:50;18.63;;;14.63;;
51475;SDS011;37554;50.362;7.568;2023-03-03T06:17:15;18.85;;;14.40;;
51475;SDS011;37554;50.362;7.568;2023-03-03T06:19:41;20.42;;;14.85;;
51475;SDS011;37554;50.362;7.568;2023-03-03T06:22:07;17.65;;;14.63;;
51475;SDS011;37554;50.362;7.568;2023-03-03T06:24:33;18.20;;;14.80;;
51475;SDS011;37554;50.362;7.568;2023-03-03T06:26:59;18.65;;;15.68;;
51475;SDS011;37554;50.362;7.568;2023-03-03T06:29:25;17.75;;;13.93;;
51475;SDS011;37554;50.362;7.568;2023-03-03T06:31:52;17.48;;;14.18;;
51475;SDS011;37554;50.362;7.568;2023-03-03T06:34:17;19.38;;;15.45;;
51475;SDS011;37554;50.362;7.568;2023-03-03T06:36:43;16.58;;;13.32;;
51475;SDS011;37554;50.362;7.568;2023-03-03T06:39:09;20.15;;;15.25;;
51475;SDS011;37554;50.362;7.568;2023-03-03T06:41:35;17.70;;;13.88;;
51475;SDS011;37554;50.362;7.568;2023-03-03T06:44:02;27.75;;;21.33;;
51475;SDS011;37554;50.362;7.568;2023-03-03T06:46:28;36.22;;;27.48;;
51475;SDS011;37554;50.362;7.568;2023-03-03T06:48:54;35.35;;;27.17;;
51475;SDS011;37554;50.362;7.568;2023-03-03T06:51:29;30.48;;;23.38;;
51475;SDS011;37554;50.362;7.568;2023-03-03T06:54:00;25.70;;;20.23;;
51475;SDS011;37554;50.362;7.568;2023-03-03T06:56:39;28.88;;;21.42;;
51475;SDS011;37554;50.362;7.568;2023-03-03T06:59:12;27.52;;;20.38;;
51475;SDS011;37554;50.362;7.568;2023-03-03T07:01:39;26.45;;;19.85;;
51475;SDS011;37554;50.362;7.568;2023-03-03T07:04:28;25.98;;;20.13;;
51475;SDS011;37554;50.362;7.568;2023-03-03T07:06:55;23.85;;;18.42;;
51475;SDS011;37554;50.362;7.568;2023-03-03T07:09:26;22.27;;;17.55;;
51475;SDS011;37554;50.362;7.568;2023-03-03T07:12:05;23.98;;;17.45;;
51475;SDS011;37554;50.362;7.568;2023-03-03T07:14:44;22.40;;;17.92;;
51475;SDS011;37554;50.362;7.568;2023-03-03T07:17:18;20.30;;;16.85;;
51475;SDS011;37554;50.362;7.568;2023-03-03T07:19:45;18.52;;;14.57;;
51475;SDS011;37554;50.362;7.568;2023-03-03T07:24:50;19.08;;;14.45;;
51475;SDS011;37554;50.362;7.568;2023-03-03T07:27:22;16.88;;;13.55;;
51475;SDS011;37554;50.362;7.568;2023-03-03T07:29:53;18.77;;;14.68;;
51475;SDS011;37554;50.362;7.568;2023-03-03T07:35:27;17.75;;;14.02;;
51475;SDS011;37554;50.362;7.568;2023-03-03T07:40:54;14.52;;;12.25;;
51475;SDS011;37554;50.362;7.568;2023-03-03T07:43:30;15.07;;;11.93;;
51475;SDS011;37554;50.362;7.568;2023-03-03T07:46:00;15.98;;;13.05;;
51475;SDS011;37554;50.362;7.568;2023-03-03T07:48:38;15.73;;;12.52;;
51475;SDS011;37554;50.362;7.568;2023-03-03T07:51:18;16.08;;;13.10;;
51475;SDS011;37554;50.362;7.568;2023-03-03T07:53:47;15.13;;;12.32;;
51475;SDS011;37554;50.362;7.568;2023-03-03T07:56:20;14.82;;;12.45;;
51475;SDS011;37554;50.362;7.568;2023-03-03T07:58:54;12.55;;;10.88;;
51475;SDS011;37554;50.362;7.568;2023-03-03T08:01:40;16.17;;;13.25;;
51475;SDS011;37554;50.362;7.568;2023-03-03T08:07:01;14.55;;;11.93;;
51475;SDS011;37554;50.362;7.568;2023-03-03T08:09:43;13.93;;;11.80;;
51475;SDS011;37554;50.362;7.568;2023-03-03T08:14:51;13.63;;;11.80;;
51475;SDS011;37554;50.362;7.568;2023-03-03T08:19:45;13.75;;;11.85;;
51475;SDS011;37554;50.362;7.568;2023-03-03T08:22:13;13.95;;;11.50;;
51475;SDS011;37554;50.362;7.568;2023-03-03T08:24:41;14.40;;;12.30;;
51475;SDS011;37554;50.362;7.568;2023-03-03T08:32:53;10.85;;;9.68;;
51475;SDS011;37554;50.362;7.568;2023-03-03T08:35:19;11.50;;;10.30;;
51475;SDS011;37554;50.362;7.568;2023-03-03T08:37:44;11.88;;;10.48;;
51475;SDS011;37554;50.362;7.568;2023-03-03T08:40:13;11.70;;;10.38;;
51475;SDS011;37554;50.362;7.568;2023-03-03T08:42:48;11.77;;;10.57;;
51475;SDS011;37554;50.362;7.568;2023-03-03T08:45:22;13.18;;;11.77;;
51475;SDS011;37554;50.362;7.568;2023-03-03T08:47:48;12.50;;;10.98;;
51475;SDS011;37554;50.362;7.568;2023-03-03T08:50:17;13.15;;;11.75;;
51475;SDS011;37554;50.362;7.568;2023-03-03T08:52:55;13.43;;;11.20;;
51475;SDS011;37554;50.362;7.568;2023-03-03T08:55:24;11.70;;;10.48;;
51475;SDS011;37554;50.362;7.568;2023-03-03T08:57:50;11.20;;;10.05;;
51475;SDS011;37554;50.362;7.568;2023-03-03T09:00:21;11.57;;;10.38;;
51475;SDS011;37554;50.362;7.568;2023-03-03T09:02:51;12.10;;;10.80;;
51475;SDS011;37554;50.362;7.568;2023-03-03T09:05:18;12.45;;;11.15;;
51475;SDS011;37554;50.362;7.568;2023-03-03T09:07:47;13.32;;;11.52;;
51475;SDS011;37554;50.362;7.568;2023-03-03T09:10:21;12.50;;;11.20;;
51475;SDS011;37554;50.362;7.568;2023-03-03T09:12:51;12.00;;;10.43;;
51475;SDS011;37554;50.362;7.568;2023-03-03T09:20:59;12.65;;;10.40;;
51475;SDS011;37554;50.362;7.568;2023-03-03T09:23:39;12.55;;;11.23;;
51475;SDS011;37554;50.362;7.568;2023-03-03T09:28:54;11.88;;;10.60;;
51475;SDS011;37554;50.362;7.568;2023-03-03T09:32:05;10.45;;;9.45;;
51475;SDS011;37554;50.362;7.568;2023-03-03T09:40:52;11.82;;;10.63;;
51475;SDS011;37554;50.362;7.568;2023-03-03T09:57:34;11.43;;;10.25;;
51475;SDS011;37554;50.362;7.568;2023-03-03T10:00:19;12.30;;;11.07;;
51475;SDS011;37554;50.362;7.568;2023-03-03T10:05:45;13.68;;;10.85;;
51475;SDS011;37554;50.362;7.568;2023-03-03T10:11:59;13.00;;;11.13;;
51475;SDS011;37554;50.362;7.568;2023-03-03T10:19:38;12.07;;;10.77;;
51475;SDS011;37554;50.362;7.568;2023-03-03T10:22:21;12.23;;;10.98;;
51475;SDS011;37554;50.362;7.568;2023-03-03T10:58:56;12.98;;;11.68;;
51475;SDS011;37554;50.362;7.568;2023-03-03T11:14:25;12.75;;;11.35;;
51475;SDS011;37554;50.362;7.568;2023-03-03T11:34:36;11.93;;;10.20;;
51475;SDS011;37554;50.362;7.568;2023-03-03T11:37:30;10.88;;;9.80;;
51475;SDS011;37554;50.362;7.568;2023-03-03T11:40:15;11.85;;;10.07;;
51475;SDS011;37554;50.362;7.568;2023-03-03T11:43:16;11.52;;;10.38;;
51475;SDS011;37554;50.362;7.568;2023-03-03T11:45:53;10.85;;;9.65;;
51475;SDS011;37554;50.362;7.568;2023-03-03T11:49:08;11.02;;;9.93;;
51475;SDS011;37554;50.362;7.568;2023-03-03T12:05:26;10.80;;;9.73;;
51475;SDS011;37554;50.362;7.568;2023-03-03T12:08:32;10.30;;;9.30;;
51475;SDS011;37554;50.362;7.568;2023-03-03T12:26:01;9.35;;;8.45;;
51475;SDS011;37554;50.362;7.568;2023-03-03T12:28:58;16.13;;;14.43;;
51475;SDS011;37554;50.362;7.568;2023-03-03T12:34:18;21.17;;;17.98;;
51475;SDS011;37554;50.362;7.568;2023-03-03T12:45:15;14.40;;;12.75;;
51475;SDS011;37554;50.362;7.568;2023-03-03T12:56:00;11.57;;;9.23;;
51475;SDS011;37554;50.362;7.568;2023-03-03T13:06:26;8.10;;;7.30;;
51475;SDS011;37554;50.362;7.568;2023-03-03T13:09:15;8.70;;;7.63;;
51475;SDS011;37554;50.362;7.568;2023-03-03T13:12:14;8.30;;;7.57;;
51475;SDS011;37554;50.362;7.568;2023-03-03T13:15:04;8.35;;;7.65;;
51475;SDS011;37554;50.362;7.568;2023-03-03T13:17:36;8.23;;;7.53;;
51475;SDS011;37554;50.362;7.568;2023-03-03T13:28:32;8.07;;;7.38;;
51475;SDS011;37554;50.362;7.568;2023-03-03T13:31:10;7.65;;;6.95;;
51475;SDS011;37554;50.362;7.568;2023-03-03T13:33:46;7.75;;;7.05;;
51475;SDS011;37554;50.362;7.568;2023-03-03T13:36:45;8.05;;;7.45;;
51475;SDS011;37554;50.362;7.568;2023-03-03T13:39:22;7.63;;;6.93;;
51475;SDS011;37554;50.362;7.568;2023-03-03T13:41:59;11.00;;;7.05;;
51475;SDS011;37554;50.362;7.568;2023-03-03T13:44:39;13.90;;;6.30;;
51475;SDS011;37554;50.362;7.568;2023-03-03T13:52:28;7.85;;;5.95;;
51475;SDS011;37554;50.362;7.568;2023-03-03T14:08:43;5.47;;;4.97;;
51475;SDS011;37554;50.362;7.568;2023-03-03T14:13:53;5.72;;;5.30;;
51475;SDS011;37554;50.362;7.568;2023-03-03T14:16:51;7.88;;;5.20;;
51475;SDS011;37554;50.362;7.568;2023-03-03T14:25:00;9.20;;;8.05;;
51475;SDS011;37554;50.362;7.568;2023-03-03T14:27:27;8.77;;;7.05;;
51475;SDS011;37554;50.362;7.568;2023-03-03T14:33:20;7.15;;;5.93;;
51475;SDS011;37554;50.362;7.568;2023-03-03T14:35:39;8.10;;;7.28;;
51475;SDS011;37554;50.362;7.568;2023-03-03T14:38:15;8.82;;;7.95;;
51475;SDS011;37554;50.362;7.568;2023-03-03T14:40:44;9.38;;;8.52;;
51475;SDS011;37554;50.362;7.568;2023-03-03T14:47:24;6.97;;;6.28;;
51475;SDS011;37554;50.362;7.568;2023-03-03T14:49:54;7.03;;;6.43;;
51475;SDS011;37554;50.362;7.568;2023-03-03T14:52:27;6.95;;;6.35;;
51475;SDS011;37554;50.362;7.568;2023-03-03T14:54:55;6.63;;;6.13;;
51475;SDS011;37554;50.362;7.568;2023-03-03T15:07:46;8.02;;;6.28;;
51475;SDS011;37554;50.362;7.568;2023-03-03T15:10:30;7.03;;;6.50;;
51475;SDS011;37554;50.362;7.568;2023-03-03T15:12:58;6.78;;;6.18;;
51475;SDS011;37554;50.362;7.568;2023-03-03T15:15:51;6.40;;;5.82;;
51475;SDS011;37554;50.362;7.568;2023-03-03T15:18:23;9.32;;;6.32;;
51475;SDS011;37554;50.362;7.568;2023-03-03T15:20:51;7.25;;;6.40;;
51475;SDS011;37554;50.362;7.568;2023-03-03T15:26:03;7.30;;;6.63;;
51475;SDS011;37554;50.362;7.568;2023-03-03T15:34:23;7.43;;;6.68;;
51475;SDS011;37554;50.362;7.568;2023-03-03T15:40:30;6.38;;;5.88;;
51475;SDS011;37554;50.362;7.568;2023-03-03T15:45:28;7.90;;;7.10;;
51475;SDS011;37554;50.362;7.568;2023-03-03T16:01:59;7.53;;;6.75;;
51475;SDS011;37554;50.362;7.568;2023-03-03T16:04:47;6.97;;;6.38;;
51475;SDS011;37554;50.362;7.568;2023-03-03T16:12:49;7.05;;;6.38;;
51475;SDS011;37554;50.362;7.568;2023-03-03T16:15:36;6.93;;;6.30;;
51475;SDS011;37554;50.362;7.568;2023-03-03T16:23:52;9.98;;;8.35;;
51475;SDS011;37554;50.362;7.568;2023-03-03T16:37:57;8.30;;;7.50;;
51475;SDS011;37554;50.362;7.568;2023-03-03T16:40:28;8.80;;;8.00;;
51475;SDS011;37554;50.362;7.568;2023-03-03T16:45:54;8.85;;;8.00;;
51475;SDS011;37554;50.362;7.568;2023-03-03T16:51:02;9.05;;;7.60;;
51475;SDS011;37554;50.362;7.568;2023-03-03T16:56:27;8.55;;;7.70;;
51475;SDS011;37554;50.362;7.568;2023-03-03T17:10:26;12.95;;;11.38;;
51475;SDS011;37554;50.362;7.568;2023-03-03T17:16:01;12.05;;;10.80;;
51475;SDS011;37554;50.362;7.568;2023-03-03T17:43:06;16.98;;;14.68;;
51475;SDS011;37554;50.362;7.568;2023-03-03T17:45:40;18.75;;;15.85;;
51475;SDS011;37554;50.362;7.568;2023-03-03T17:51:04;19.20;;;16.05;;
51475;SDS011;37554;50.362;7.568;2023-03-03T17:56:23;20.15;;;16.00;;
51475;SDS011;37554;50.362;7.568;2023-03-03T17:59:12;19.58;;;16.77;;
51475;SDS011;37554;50.362;7.568;2023-03-03T18:02:24;19.67;;;16.50;;
51475;SDS011;37554;50.362;7.568;2023-03-03T18:05:33;21.05;;;17.40;;
51475;SDS011;37554;50.362;7.568;2023-03-03T18:19:43;24.75;;;20.38;;
51475;SDS011;37554;50.362;7.568;2023-03-03T18:25:03;26.83;;;21.42;;
51475;SDS011;37554;50.362;7.568;2023-03-03T18:27:36;26.73;;;21.98;;
51475;SDS011;37554;50.362;7.568;2023-03-03T18:35:22;26.52;;;21.90;;
51475;SDS011;37554;50.362;7.568;2023-03-03T18:37:50;29.85;;;23.88;;
51475;SDS011;37554;50.362;7.568;2023-03-03T18:40:26;31.15;;;24.42;;
51475;SDS011;37554;50.362;7.568;2023-03-03T18:42:57;27.08;;;22.65;;
51475;SDS011;37554;50.362;7.568;2023-03-03T18:50:41;33.25;;;26.00;;
51475;SDS011;37554;50.362;7.568;2023-03-03T18:55:43;34.00;;;26.38;;
51475;SDS011;37554;50.362;7.568;2023-03-03T19:00:59;32.45;;;26.02;;
51475;SDS011;37554;50.362;7.568;2023-03-03T19:06:28;34.00;;;27.02;;
51475;SDS011;37554;50.362;7.568;2023-03-03T19:08:54;32.20;;;26.40;;
51475;SDS011;37554;50.362;7.568;2023-03-03T19:16:53;35.00;;;27.33;;
51475;SDS011;37554;50.362;7.568;2023-03-03T19:19:21;34.17;;;26.95;;
51475;SDS011;37554;50.362;7.568;2023-03-03T19:21:50;35.25;;;27.38;;
51475;SDS011;37554;50.362;7.568;2023-03-03T19:24:36;35.88;;;27.58;;
51475;SDS011;37554;50.362;7.568;2023-03-03T19:27:09;38.70;;;29.17;;
51475;SDS011;37554;50.362;7.568;2023-03-03T19:32:17;36.97;;;27.80;;
51475;SDS011;37554;50.362;7.568;2023-03-03T19:40:56;41.05;;;29.40;;
51475;SDS011;37554;50.362;7.568;2023-03-03T19:48:47;40.53;;;29.88;;
51475;SDS011;37554;50.362;7.568;2023-03-03T19:51:31;37.25;;;29.45;;
51475;SDS011;37554;50.362;7.568;2023-03-03T19:56:56;41.38;;;30.35;;
51475;SDS011;37554;50.362;7.568;2023-03-03T20:07:59;39.03;;;30.55;;
51475;SDS011;37554;50.362;7.568;2023-03-03T20:24:27;39.85;;;30.73;;
51475;SDS011;37554;50.362;7.568;2023-03-03T20:35:32;43.58;;;32.63;;
51475;SDS011;37554;50.362;7.568;2023-03-03T20:46:52;39.55;;;30.52;;
51475;SDS011;37554;50.362;7.568;2023-03-03T20:52:39;39.92;;;30.38;;
51475;SDS011;37554;50.362;7.568;2023-03-03T20:56:04;41.63;;;31.65;;
51475;SDS011;37554;50.362;7.568;2023-03-03T20:58:40;39.90;;;30.70;;
51475;SDS011;37554;50.362;7.568;2023-03-03T21:01:07;43.20;;;31.40;;
51475;SDS011;37554;50.362;7.568;2023-03-03T21:03:38;44.78;;;33.90;;
51475;SDS011;37554;50.362;7.568;2023-03-03T21:06:07;43.55;;;33.38;;
51475;SDS011;37554;50.362;7.568;2023-03-03T21:08:41;44.65;;;33.08;;
51475;SDS011;37554;50.362;7.568;2023-03-03T21:13:56;43.08;;;32.70;;
51475;SDS011;37554;50.362;7.568;2023-03-03T21:21:28;42.97;;;31.70;;
51475;SDS011;37554;50.362;7.568;2023-03-03T21:23:56;44.97;;;32.72;;
51475;SDS011;37554;50.362;7.568;2023-03-03T21:29:34;46.20;;;34.13;;
51475;SDS011;37554;50.362;7.568;2023-03-03T21:32:01;43.77;;;32.63;;
51475;SDS011;37554;50.362;7.568;2023-03-03T21:34:32;45.75;;;34.75;;
51475;SDS011;37554;50.362;7.568;2023-03-03T21:37:40;47.75;;;35.35;;
51475;SDS011;37554;50.362;7.568;2023-03-03T21:40:11;44.60;;;32.85;;
51475;SDS011;37554;50.362;7.568;2023-03-03T21:42:58;45.45;;;33.22;;
51475;SDS011;37554;50.362;7.568;2023-03-03T21:45:24;46.00;;;34.75;;
51475;SDS011;37554;50.362;7.568;2023-03-03T21:47:50;46.17;;;34.53;;
51475;SDS011;37554;50.362;7.568;2023-03-03T21:50:18;45.85;;;34.40;;
51475;SDS011;37554;50.362;7.568;2023-03-03T21:52:45;47.90;;;35.97;;
51475;SDS011;37554;50.362;7.568;2023-03-03T21:55:12;45.97;;;33.17;;
51475;SDS011;37554;50.362;7.568;2023-03-03T21:57:37;46.10;;;34.78;;
51475;SDS011;37554;50.362;7.568;2023-03-03T22:00:06;46.90;;;34.88;;
51475;SDS011;37554;50.362;7.568;2023-03-03T22:02:33;46.42;;;34.55;;
51475;SDS011;37554;50.362;7.568;2023-03-03T22:04:59;46.53;;;34.95;;
51475;SDS011;37554;50.362;7.568;2023-03-03T22:07:27;45.25;;;34.33;;
51475;SDS011;37554;50.362;7.568;2023-03-03T22:09:53;47.92;;;35.03;;
51475;SDS011;37554;50.362;7.568;2023-03-03T22:12:18;47.13;;;35.45;;
51475;SDS011;37554;50.362;7.568;2023-03-03T22:14:44;47.35;;;35.38;;
51475;SDS011;37554;50.362;7.568;2023-03-03T22:17:09;48.08;;;34.72;;
51475;SDS011;37554;50.362;7.568;2023-03-03T22:19:35;45.85;;;34.30;;
51475;SDS011;37554;50.362;7.568;2023-03-03T22:22:02;50.20;;;34.90;;
51475;SDS011;37554;50.362;7.568;2023-03-03T22:24:29;50.13;;;35.17;;
51475;SDS011;37554;50.362;7.568;2023-03-03T22:26:55;53.13;;;36.15;;
51475;SDS011;37554;50.362;7.568;2023-03-03T22:29:20;45.47;;;32.88;;
51475;SDS011;37554;50.362;7.568;2023-03-03T22:31:47;49.42;;;35.88;;
51475;SDS011;37554;50.362;7.568;2023-03-03T22:34:13;47.80;;;34.45;;
51475;SDS011;37554;50.362;7.568;2023-03-03T22:36:39;49.45;;;36.33;;
51475;SDS011;37554;50.362;7.568;2023-03-03T22:39:05;49.47;;;35.65;;
51475;SDS011;37554;50.362;7.568;2023-03-03T22:41:31;48.63;;;33.70;;
51475;SDS011;37554;50.362;7.568;2023-03-03T22:43:56;44.17;;;32.72;;
51475;SDS011;37554;50.362;7.568;2023-03-03T22:46:22;45.45;;;34.00;;
51475;SDS011;37554;50.362;7.568;2023-03-03T22:48:48;48.80;;;34.30;;
51475;SDS011;37554;50.362;7.568;2023-03-03T22:51:13;48.13;;;33.75;;
51475;SDS011;37554;50.362;7.568;2023-03-03T22:53:39;46.90;;;33.50;;
51475;SDS011;37554;50.362;7.568;2023-03-03T22:56:05;45.78;;;33.75;;